sensor_id;sensor_type;location;lat;lon;timestamp;P1;durP1;ratioP1;P2;durP2;ratioP2
32501;SDS011;18952;52.516;13.460;2023-08-06T00:00:30;10.73;;;8.20;;
32501;SDS011;18952;52.516;13.460;2023-08-06T00:02:57;9.95;;;8.32;;
32501;SDS011;18952;52.516;13.460;2023-08-06T00:05:24;10.27;;;8.20;;
32501;SDS011;18952;52.516;13.460;2023-08-06T00:07:51;11.70;;;8.40;;
32501;SDS011;18952;52.516;13.460;2023-08-06T00:10:17;14.85;;;8.35;;
32501;SDS011;18952;52.516;13.460;2023-08-06T00:12:44;11.18;;;8.57;;
32501;SDS011;18952;52.516;13.460;2023-08-06T00:15:11;11.48;;;8.43;;
32501;SDS011;18952;52.516;13.460;2023-08-06T00:17:38;11.63;;;8.38;;
32501;SDS011;18952;52.516;13.460;2023-08-06T00:20:05;10.23;;;7.97;;
32501;SDS011;18952;52.516;13.460;2023-08-06T00:22:33;14.48;;;7.50;;
32501;SDS011;18952;52.516;13.460;2023-08-06T00:25:00;10.20;;;8.00;;
32501;SDS011;18952;52.516;13.460;2023-08-06T00:27:28;17.08;;;8.48;;
32501;SDS011;18952;52.516;13.460;2023-08-06T00:29:55;10.57;;;8.20;;
32501;SDS011;18952;52.516;13.460;2023-08-06T00:32:22;11.02;;;8.65;;
32501;SDS011;18952;52.516;13.460;2023-08-06T00:34:49;13.15;;;8.60;;
32501;SDS011;18952;52.516;13.460;2023-08-06T00:37:16;10.95;;;8.57;;
32501;SDS011;18952;52.516;13.460;2023-08-06T00:39:43;9.77;;;7.80;;
32501;SDS011;18952;52.516;13.460;2023-08-06T00:42:11;10.85;;;8.20;;
32501;SDS011;18952;52.516;13.460;2023-08-06T00:44:38;12.35;;;8.68;;
32501;SDS011;18952;52.516;13.460;2023-08-06T00:47:05;12.27;;;8.70;;
32501;SDS011;18952;52.516;13.460;2023-08-06T00:49:34;9.63;;;8.63;;
32501;SDS011;18952;52.516;13.460;2023-08-06T00:52:03;11.45;;;8.40;;
32501;SDS011;18952;52.516;13.460;2023-08-06T00:54:31;12.40;;;9.00;;
32501;SDS011;18952;52.516;13.460;2023-08-06T00:56:58;9.70;;;8.18;;
32501;SDS011;18952;52.516;13.460;2023-08-06T00:59:29;13.13;;;8.57;;
32501;SDS011;18952;52.516;13.460;2023-08-06T01:01:57;11.02;;;9.00;;
32501;SDS011;18952;52.516;13.460;2023-08-06T01:04:23;13.35;;;9.05;;
32501;SDS011;18952;52.516;13.460;2023-08-06T01:07:01;9.48;;;8.52;;
32501;SDS011;18952;52.516;13.460;2023-08-06T01:12:41;8.90;;;8.00;;
32501;SDS011;18952;52.516;13.460;2023-08-06T01:15:21;12.70;;;8.88;;
32501;SDS011;18952;52.516;13.460;2023-08-06T01:17:51;9.57;;;8.23;;
32501;SDS011;18952;52.516;13.460;2023-08-06T01:20:18;10.48;;;8.82;;
32501;SDS011;18952;52.516;13.460;2023-08-06T01:22:45;10.05;;;8.75;;
32501;SDS011;18952;52.516;13.460;2023-08-06T01:25:13;10.55;;;9.45;;
32501;SDS011;18952;52.516;13.460;2023-08-06T01:27:49;10.70;;;9.00;;
32501;SDS011;18952;52.516;13.460;2023-08-06T01:30:17;9.90;;;8.82;;
32501;SDS011;18952;52.516;13.460;2023-08-06T01:32:49;10.32;;;9.20;;
32501;SDS011;18952;52.516;13.460;2023-08-06T01:35:19;12.23;;;10.23;;
32501;SDS011;18952;52.516;13.460;2023-08-06T01:37:48;12.63;;;10.18;;
32501;SDS011;18952;52.516;13.460;2023-08-06T01:40:15;10.40;;;9.40;;
32501;SDS011;18952;52.516;13.460;2023-08-06T01:42:41;10.15;;;9.15;;
32501;SDS011;18952;52.516;13.460;2023-08-06T01:45:08;11.70;;;9.90;;
32501;SDS011;18952;52.516;13.460;2023-08-06T01:47:36;13.68;;;12.38;;
32501;SDS011;18952;52.516;13.460;2023-08-06T01:50:03;12.30;;;10.63;;
32501;SDS011;18952;52.516;13.460;2023-08-06T01:52:30;12.35;;;10.52;;
32501;SDS011;18952;52.516;13.460;2023-08-06T01:54:57;15.65;;;11.07;;
32501;SDS011;18952;52.516;13.460;2023-08-06T01:57:24;12.05;;;10.90;;
32501;SDS011;18952;52.516;13.460;2023-08-06T01:59:50;12.15;;;10.93;;
32501;SDS011;18952;52.516;13.460;2023-08-06T02:02:17;13.75;;;12.15;;
32501;SDS011;18952;52.516;13.460;2023-08-06T02:04:44;16.85;;;10.95;;
32501;SDS011;18952;52.516;13.460;2023-08-06T02:07:11;13.75;;;12.38;;
32501;SDS011;18952;52.516;13.460;2023-08-06T02:09:37;14.82;;;13.43;;
32501;SDS011;18952;52.516;13.460;2023-08-06T02:12:04;13.80;;;11.65;;
32501;SDS011;18952;52.516;13.460;2023-08-06T02:14:32;11.88;;;10.45;;
32501;SDS011;18952;52.516;13.460;2023-08-06T02:16:58;13.15;;;11.00;;
32501;SDS011;18952;52.516;13.460;2023-08-06T02:19:25;12.32;;;10.88;;
32501;SDS011;18952;52.516;13.460;2023-08-06T02:21:52;12.45;;;11.25;;
32501;SDS011;18952;52.516;13.460;2023-08-06T02:24:19;13.77;;;11.13;;
32501;SDS011;18952;52.516;13.460;2023-08-06T02:26:46;12.27;;;10.98;;
32501;SDS011;18952;52.516;13.460;2023-08-06T02:29:13;13.60;;;10.88;;
32501;SDS011;18952;52.516;13.460;2023-08-06T02:31:40;11.52;;;10.45;;
32501;SDS011;18952;52.516;13.460;2023-08-06T02:34:07;11.93;;;10.77;;
32501;SDS011;18952;52.516;13.460;2023-08-06T02:36:33;12.20;;;10.95;;
32501;SDS011;18952;52.516;13.460;2023-08-06T02:39:00;13.10;;;11.27;;
32501;SDS011;18952;52.516;13.460;2023-08-06T02:41:27;13.63;;;12.25;;
32501;SDS011;18952;52.516;13.460;2023-08-06T02:43:54;12.30;;;11.00;;
32501;SDS011;18952;52.516;13.460;2023-08-06T02:46:20;13.45;;;10.93;;
32501;SDS011;18952;52.516;13.460;2023-08-06T02:48:47;12.65;;;11.13;;
32501;SDS011;18952;52.516;13.460;2023-08-06T02:51:14;12.32;;;11.05;;
32501;SDS011;18952;52.516;13.460;2023-08-06T02:53:41;11.82;;;10.68;;
32501;SDS011;18952;52.516;13.460;2023-08-06T02:56:07;11.45;;;10.32;;
32501;SDS011;18952;52.516;13.460;2023-08-06T02:58:34;13.05;;;11.05;;
32501;SDS011;18952;52.516;13.460;2023-08-06T03:01:02;12.38;;;11.18;;
32501;SDS011;18952;52.516;13.460;2023-08-06T03:03:33;11.20;;;10.07;;
32501;SDS011;18952;52.516;13.460;2023-08-06T03:06:00;12.80;;;10.82;;
32501;SDS011;18952;52.516;13.460;2023-08-06T03:08:27;12.30;;;10.95;;
32501;SDS011;18952;52.516;13.460;2023-08-06T03:10:54;12.38;;;11.15;;
32501;SDS011;18952;52.516;13.460;2023-08-06T03:13:21;10.52;;;9.55;;
32501;SDS011;18952;52.516;13.460;2023-08-06T03:15:52;12.82;;;10.23;;
32501;SDS011;18952;52.516;13.460;2023-08-06T03:18:19;10.88;;;9.85;;
32501;SDS011;18952;52.516;13.460;2023-08-06T03:20:46;12.48;;;11.18;;
32501;SDS011;18952;52.516;13.460;2023-08-06T03:23:13;11.30;;;10.20;;
32501;SDS011;18952;52.516;13.460;2023-08-06T03:25:40;15.75;;;10.98;;
32501;SDS011;18952;52.516;13.460;2023-08-06T03:28:06;12.80;;;11.50;;
32501;SDS011;18952;52.516;13.460;2023-08-06T03:30:33;12.85;;;10.57;;
32501;SDS011;18952;52.516;13.460;2023-08-06T03:33:00;13.43;;;12.02;;
32501;SDS011;18952;52.516;13.460;2023-08-06T03:35:27;13.18;;;11.57;;
32501;SDS011;18952;52.516;13.460;2023-08-06T03:37:54;14.23;;;12.82;;
32501;SDS011;18952;52.516;13.460;2023-08-06T03:40:21;13.85;;;12.55;;
32501;SDS011;18952;52.516;13.460;2023-08-06T03:42:47;14.75;;;12.10;;
32501;SDS011;18952;52.516;13.460;2023-08-06T03:45:14;13.95;;;12.55;;
32501;SDS011;18952;52.516;13.460;2023-08-06T03:47:41;14.60;;;12.98;;
32501;SDS011;18952;52.516;13.460;2023-08-06T03:50:08;15.40;;;13.45;;
32501;SDS011;18952;52.516;13.460;2023-08-06T03:52:35;16.02;;;12.90;;
32501;SDS011;18952;52.516;13.460;2023-08-06T03:55:02;14.25;;;12.85;;
32501;SDS011;18952;52.516;13.460;2023-08-06T03:57:29;14.73;;;12.15;;
32501;SDS011;18952;52.516;13.460;2023-08-06T03:59:55;15.68;;;12.45;;
32501;SDS011;18952;52.516;13.460;2023-08-06T04:02:22;14.30;;;12.18;;
32501;SDS011;18952;52.516;13.460;2023-08-06T04:04:49;14.82;;;13.32;;
32501;SDS011;18952;52.516;13.460;2023-08-06T04:07:16;14.20;;;11.35;;
32501;SDS011;18952;52.516;13.460;2023-08-06T04:09:53;16.42;;;12.07;;
32501;SDS011;18952;52.516;13.460;2023-08-06T04:12:21;12.80;;;11.35;;
32501;SDS011;18952;52.516;13.460;2023-08-06T04:14:48;12.80;;;11.13;;
32501;SDS011;18952;52.516;13.460;2023-08-06T04:17:16;13.38;;;11.98;;
32501;SDS011;18952;52.516;13.460;2023-08-06T04:19:43;12.65;;;11.35;;
32501;SDS011;18952;52.516;13.460;2023-08-06T04:22:09;14.13;;;12.73;;
32501;SDS011;18952;52.516;13.460;2023-08-06T04:24:36;12.82;;;10.52;;
32501;SDS011;18952;52.516;13.460;2023-08-06T04:27:03;11.73;;;10.55;;
32501;SDS011;18952;52.516;13.460;2023-08-06T04:29:30;10.80;;;9.80;;
32501;SDS011;18952;52.516;13.460;2023-08-06T04:31:57;12.23;;;10.30;;
32501;SDS011;18952;52.516;13.460;2023-08-06T04:34:24;13.35;;;10.88;;
32501;SDS011;18952;52.516;13.460;2023-08-06T04:36:51;10.75;;;9.77;;
32501;SDS011;18952;52.516;13.460;2023-08-06T04:39:17;11.38;;;10.05;;
32501;SDS011;18952;52.516;13.460;2023-08-06T04:41:44;12.35;;;11.25;;
32501;SDS011;18952;52.516;13.460;2023-08-06T04:44:11;12.80;;;11.13;;
32501;SDS011;18952;52.516;13.460;2023-08-06T04:46:38;13.00;;;11.63;;
32501;SDS011;18952;52.516;13.460;2023-08-06T04:49:05;12.55;;;11.18;;
32501;SDS011;18952;52.516;13.460;2023-08-06T04:51:32;13.07;;;11.13;;
32501;SDS011;18952;52.516;13.460;2023-08-06T04:53:58;10.65;;;9.60;;
32501;SDS011;18952;52.516;13.460;2023-08-06T04:56:25;11.25;;;10.15;;
32501;SDS011;18952;52.516;13.460;2023-08-06T04:58:52;12.07;;;10.80;;
32501;SDS011;18952;52.516;13.460;2023-08-06T05:01:19;12.25;;;10.90;;
32501;SDS011;18952;52.516;13.460;2023-08-06T05:03:46;12.25;;;11.02;;
32501;SDS011;18952;52.516;13.460;2023-08-06T05:06:14;14.00;;;12.60;;
32501;SDS011;18952;52.516;13.460;2023-08-06T05:08:40;17.63;;;11.43;;
32501;SDS011;18952;52.516;13.460;2023-08-06T05:11:07;12.65;;;11.45;;
32501;SDS011;18952;52.516;13.460;2023-08-06T05:13:35;12.88;;;11.57;;
32501;SDS011;18952;52.516;13.460;2023-08-06T05:16:02;18.92;;;12.10;;
32501;SDS011;18952;52.516;13.460;2023-08-06T05:18:29;13.95;;;10.85;;
32501;SDS011;18952;52.516;13.460;2023-08-06T05:20:56;12.40;;;11.35;;
32501;SDS011;18952;52.516;13.460;2023-08-06T05:23:22;12.68;;;11.38;;
32501;SDS011;18952;52.516;13.460;2023-08-06T05:25:49;12.50;;;11.20;;
32501;SDS011;18952;52.516;13.460;2023-08-06T05:28:16;13.95;;;11.65;;
32501;SDS011;18952;52.516;13.460;2023-08-06T05:30:43;14.05;;;11.57;;
32501;SDS011;18952;52.516;13.460;2023-08-06T05:33:10;13.90;;;12.48;;
32501;SDS011;18952;52.516;13.460;2023-08-06T05:35:36;13.93;;;12.52;;
32501;SDS011;18952;52.516;13.460;2023-08-06T05:38:03;12.25;;;10.93;;
32501;SDS011;18952;52.516;13.460;2023-08-06T05:40:32;12.18;;;10.98;;
32501;SDS011;18952;52.516;13.460;2023-08-06T05:43:00;12.70;;;11.32;;
32501;SDS011;18952;52.516;13.460;2023-08-06T05:45:27;12.80;;;10.57;;
32501;SDS011;18952;52.516;13.460;2023-08-06T05:47:53;12.07;;;10.98;;
32501;SDS011;18952;52.516;13.460;2023-08-06T05:50:20;11.55;;;10.35;;
32501;SDS011;18952;52.516;13.460;2023-08-06T05:52:47;13.02;;;11.90;;
32501;SDS011;18952;52.516;13.460;2023-08-06T05:55:14;13.67;;;11.90;;
32501;SDS011;18952;52.516;13.460;2023-08-06T05:57:41;11.95;;;10.75;;
32501;SDS011;18952;52.516;13.460;2023-08-06T06:00:08;11.70;;;10.50;;
32501;SDS011;18952;52.516;13.460;2023-08-06T06:02:35;15.75;;;11.40;;
32501;SDS011;18952;52.516;13.460;2023-08-06T06:05:02;11.23;;;10.10;;
32501;SDS011;18952;52.516;13.460;2023-08-06T06:07:29;12.95;;;11.07;;
32501;SDS011;18952;52.516;13.460;2023-08-06T06:09:55;11.05;;;9.88;;
32501;SDS011;18952;52.516;13.460;2023-08-06T06:12:24;13.80;;;11.30;;
32501;SDS011;18952;52.516;13.460;2023-08-06T06:14:50;22.73;;;14.50;;
32501;SDS011;18952;52.516;13.460;2023-08-06T06:17:17;13.95;;;10.95;;
32501;SDS011;18952;52.516;13.460;2023-08-06T06:19:44;11.55;;;10.32;;
32501;SDS011;18952;52.516;13.460;2023-08-06T06:22:11;15.32;;;12.65;;
32501;SDS011;18952;52.516;13.460;2023-08-06T06:24:37;13.80;;;11.50;;
32501;SDS011;18952;52.516;13.460;2023-08-06T06:27:04;13.73;;;12.43;;
32501;SDS011;18952;52.516;13.460;2023-08-06T06:29:31;12.75;;;11.40;;
32501;SDS011;18952;52.516;13.460;2023-08-06T06:31:58;12.57;;;11.38;;
32501;SDS011;18952;52.516;13.460;2023-08-06T06:34:25;12.05;;;10.95;;
32501;SDS011;18952;52.516;13.460;2023-08-06T06:36:52;11.10;;;9.88;;
32501;SDS011;18952;52.516;13.460;2023-08-06T06:39:18;10.98;;;9.98;;
32501;SDS011;18952;52.516;13.460;2023-08-06T06:41:45;11.02;;;9.98;;
32501;SDS011;18952;52.516;13.460;2023-08-06T06:44:13;10.45;;;9.50;;
32501;SDS011;18952;52.516;13.460;2023-08-06T06:46:40;9.57;;;8.57;;
32501;SDS011;18952;52.516;13.460;2023-08-06T06:49:07;9.77;;;8.77;;
32501;SDS011;18952;52.516;13.460;2023-08-06T06:51:33;10.13;;;9.02;;
32501;SDS011;18952;52.516;13.460;2023-08-06T06:54:00;9.88;;;8.88;;
32501;SDS011;18952;52.516;13.460;2023-08-06T06:56:27;11.05;;;9.88;;
32501;SDS011;18952;52.516;13.460;2023-08-06T06:58:54;10.95;;;9.85;;
32501;SDS011;18952;52.516;13.460;2023-08-06T07:01:21;17.30;;;11.32;;
32501;SDS011;18952;52.516;13.460;2023-08-06T07:03:48;11.25;;;9.23;;
32501;SDS011;18952;52.516;13.460;2023-08-06T07:06:14;10.13;;;8.82;;
32501;SDS011;18952;52.516;13.460;2023-08-06T07:08:41;12.52;;;9.55;;
32501;SDS011;18952;52.516;13.460;2023-08-06T07:11:08;9.60;;;8.70;;
32501;SDS011;18952;52.516;13.460;2023-08-06T07:13:35;10.23;;;8.70;;
32501;SDS011;18952;52.516;13.460;2023-08-06T07:16:02;8.70;;;7.90;;
32501;SDS011;18952;52.516;13.460;2023-08-06T07:18:29;7.75;;;7.00;;
32501;SDS011;18952;52.516;13.460;2023-08-06T07:20:56;13.15;;;10.00;;
32501;SDS011;18952;52.516;13.460;2023-08-06T07:23:23;8.70;;;7.90;;
32501;SDS011;18952;52.516;13.460;2023-08-06T07:25:51;10.00;;;9.00;;
32501;SDS011;18952;52.516;13.460;2023-08-06T07:28:18;8.90;;;8.00;;
32501;SDS011;18952;52.516;13.460;2023-08-06T07:30:45;9.00;;;8.20;;
32501;SDS011;18952;52.516;13.460;2023-08-06T07:33:13;9.70;;;8.70;;
32501;SDS011;18952;52.516;13.460;2023-08-06T07:35:40;8.85;;;8.05;;
32501;SDS011;18952;52.516;13.460;2023-08-06T07:38:09;9.60;;;8.60;;
32501;SDS011;18952;52.516;13.460;2023-08-06T07:40:36;8.18;;;7.38;;
32501;SDS011;18952;52.516;13.460;2023-08-06T07:43:03;9.43;;;7.55;;
32501;SDS011;18952;52.516;13.460;2023-08-06T07:45:33;8.57;;;7.78;;
32501;SDS011;18952;52.516;13.460;2023-08-06T07:48:01;10.15;;;8.55;;
32501;SDS011;18952;52.516;13.460;2023-08-06T07:50:28;10.57;;;8.38;;
32501;SDS011;18952;52.516;13.460;2023-08-06T07:52:55;9.73;;;8.88;;
32501;SDS011;18952;52.516;13.460;2023-08-06T07:55:22;9.57;;;8.52;;
32501;SDS011;18952;52.516;13.460;2023-08-06T07:57:49;9.25;;;8.30;;
32501;SDS011;18952;52.516;13.460;2023-08-06T08:00:16;10.70;;;9.57;;
32501;SDS011;18952;52.516;13.460;2023-08-06T08:02:43;11.20;;;10.18;;
32501;SDS011;18952;52.516;13.460;2023-08-06T08:05:10;12.50;;;10.73;;
32501;SDS011;18952;52.516;13.460;2023-08-06T08:07:36;14.23;;;11.20;;
32501;SDS011;18952;52.516;13.460;2023-08-06T08:10:03;13.85;;;12.40;;
32501;SDS011;18952;52.516;13.460;2023-08-06T08:12:30;14.48;;;12.40;;
32501;SDS011;18952;52.516;13.460;2023-08-06T08:14:57;13.05;;;11.82;;
32501;SDS011;18952;52.516;13.460;2023-08-06T08:17:24;13.05;;;11.88;;
32501;SDS011;18952;52.516;13.460;2023-08-06T08:19:51;14.98;;;13.52;;
32501;SDS011;18952;52.516;13.460;2023-08-06T08:22:18;13.65;;;12.35;;
32501;SDS011;18952;52.516;13.460;2023-08-06T08:24:44;14.52;;;13.02;;
32501;SDS011;18952;52.516;13.460;2023-08-06T08:27:11;13.38;;;12.07;;
32501;SDS011;18952;52.516;13.460;2023-08-06T08:29:38;14.25;;;12.70;;
32501;SDS011;18952;52.516;13.460;2023-08-06T08:32:05;21.17;;;13.88;;
32501;SDS011;18952;52.516;13.460;2023-08-06T08:34:32;13.95;;;12.65;;
32501;SDS011;18952;52.516;13.460;2023-08-06T08:36:59;13.63;;;12.23;;
32501;SDS011;18952;52.516;13.460;2023-08-06T08:39:26;12.05;;;10.82;;
32501;SDS011;18952;52.516;13.460;2023-08-06T08:41:52;12.48;;;11.18;;
32501;SDS011;18952;52.516;13.460;2023-08-06T08:44:19;12.95;;;11.35;;
32501;SDS011;18952;52.516;13.460;2023-08-06T08:46:46;13.45;;;12.05;;
32501;SDS011;18952;52.516;13.460;2023-08-06T08:49:14;13.10;;;11.70;;
32501;SDS011;18952;52.516;13.460;2023-08-06T08:51:40;13.45;;;12.15;;
32501;SDS011;18952;52.516;13.460;2023-08-06T08:54:09;13.48;;;12.20;;
32501;SDS011;18952;52.516;13.460;2023-08-06T08:56:38;15.23;;;12.77;;
32501;SDS011;18952;52.516;13.460;2023-08-06T08:59:05;14.38;;;12.88;;
32501;SDS011;18952;52.516;13.460;2023-08-06T09:01:32;14.82;;;13.30;;
32501;SDS011;18952;52.516;13.460;2023-08-06T09:03:59;15.15;;;13.55;;
32501;SDS011;18952;52.516;13.460;2023-08-06T09:06:27;14.77;;;13.30;;
32501;SDS011;18952;52.516;13.460;2023-08-06T09:09:01;15.27;;;13.88;;
32501;SDS011;18952;52.516;13.460;2023-08-06T09:11:36;16.35;;;14.65;;
32501;SDS011;18952;52.516;13.460;2023-08-06T09:14:08;16.58;;;14.98;;
32501;SDS011;18952;52.516;13.460;2023-08-06T09:16:37;17.73;;;15.95;;
32501;SDS011;18952;52.516;13.460;2023-08-06T09:19:10;16.75;;;15.05;;
32501;SDS011;18952;52.516;13.460;2023-08-06T09:21:38;18.33;;;16.45;;
32501;SDS011;18952;52.516;13.460;2023-08-06T09:24:09;16.92;;;15.32;;
32501;SDS011;18952;52.516;13.460;2023-08-06T09:26:40;16.45;;;14.95;;
32501;SDS011;18952;52.516;13.460;2023-08-06T09:29:08;17.40;;;15.70;;
32501;SDS011;18952;52.516;13.460;2023-08-06T09:31:42;19.40;;;17.45;;
32501;SDS011;18952;52.516;13.460;2023-08-06T09:34:16;17.35;;;15.50;;
32501;SDS011;18952;52.516;13.460;2023-08-06T09:36:48;17.95;;;16.23;;
32501;SDS011;18952;52.516;13.460;2023-08-06T09:39:20;19.83;;;17.80;;
32501;SDS011;18952;52.516;13.460;2023-08-06T09:41:48;18.08;;;15.95;;
32501;SDS011;18952;52.516;13.460;2023-08-06T09:44:23;18.88;;;16.98;;
32501;SDS011;18952;52.516;13.460;2023-08-06T09:46:52;16.95;;;15.07;;
32501;SDS011;18952;52.516;13.460;2023-08-06T09:49:21;16.20;;;14.65;;
32501;SDS011;18952;52.516;13.460;2023-08-06T09:51:52;17.45;;;15.85;;
32501;SDS011;18952;52.516;13.460;2023-08-06T09:54:19;14.25;;;12.82;;
32501;SDS011;18952;52.516;13.460;2023-08-06T09:56:53;11.48;;;9.50;;
32501;SDS011;18952;52.516;13.460;2023-08-06T09:59:22;8.93;;;8.10;;
32501;SDS011;18952;52.516;13.460;2023-08-06T10:01:50;10.80;;;9.50;;
32501;SDS011;18952;52.516;13.460;2023-08-06T10:04:19;8.80;;;8.07;;
32501;SDS011;18952;52.516;13.460;2023-08-06T10:06:52;8.68;;;7.78;;
32501;SDS011;18952;52.516;13.460;2023-08-06T10:09:20;7.55;;;6.82;;
32501;SDS011;18952;52.516;13.460;2023-08-06T10:11:49;8.80;;;8.00;;
32501;SDS011;18952;52.516;13.460;2023-08-06T10:14:23;10.80;;;8.00;;
32501;SDS011;18952;52.516;13.460;2023-08-06T10:16:52;9.65;;;8.65;;
32501;SDS011;18952;52.516;13.460;2023-08-06T10:19:19;6.78;;;6.05;;
32501;SDS011;18952;52.516;13.460;2023-08-06T10:27:13;6.25;;;5.65;;
32501;SDS011;18952;52.516;13.460;2023-08-06T10:29:40;4.40;;;4.00;;
32501;SDS011;18952;52.516;13.460;2023-08-06T10:32:07;4.97;;;4.25;;
32501;SDS011;18952;52.516;13.460;2023-08-06T10:37:19;6.43;;;5.28;;
32501;SDS011;18952;52.516;13.460;2023-08-06T10:39:50;5.05;;;4.55;;
32501;SDS011;18952;52.516;13.460;2023-08-06T10:42:21;6.03;;;4.43;;
32501;SDS011;18952;52.516;13.460;2023-08-06T10:45:13;5.68;;;4.40;;
32501;SDS011;18952;52.516;13.460;2023-08-06T10:52:40;5.40;;;4.88;;
32501;SDS011;18952;52.516;13.460;2023-08-06T10:55:07;4.78;;;4.15;;
32501;SDS011;18952;52.516;13.460;2023-08-06T10:57:34;3.33;;;2.97;;
32501;SDS011;18952;52.516;13.460;2023-08-06T11:00:03;4.65;;;4.10;;
32501;SDS011;18952;52.516;13.460;2023-08-06T11:02:42;7.28;;;4.28;;
32501;SDS011;18952;52.516;13.460;2023-08-06T11:05:09;5.45;;;4.35;;
32501;SDS011;18952;52.516;13.460;2023-08-06T11:07:36;4.43;;;4.05;;
32501;SDS011;18952;52.516;13.460;2023-08-06T11:10:07;5.38;;;4.88;;
32501;SDS011;18952;52.516;13.460;2023-08-06T11:12:36;6.88;;;5.07;;
32501;SDS011;18952;52.516;13.460;2023-08-06T11:15:03;7.28;;;5.03;;
32501;SDS011;18952;52.516;13.460;2023-08-06T11:17:31;5.65;;;5.15;;
32501;SDS011;18952;52.516;13.460;2023-08-06T11:20:03;6.15;;;5.38;;
32501;SDS011;18952;52.516;13.460;2023-08-06T11:22:31;9.00;;;5.90;;
32501;SDS011;18952;52.516;13.460;2023-08-06T11:24:58;6.50;;;5.90;;
32501;SDS011;18952;52.516;13.460;2023-08-06T11:27:26;6.75;;;6.00;;
32501;SDS011;18952;52.516;13.460;2023-08-06T11:29:53;8.07;;;7.28;;
32501;SDS011;18952;52.516;13.460;2023-08-06T11:32:20;7.22;;;6.47;;
32501;SDS011;18952;52.516;13.460;2023-08-06T11:34:47;7.25;;;6.18;;
32501;SDS011;18952;52.516;13.460;2023-08-06T11:37:14;7.57;;;6.88;;
32501;SDS011;18952;52.516;13.460;2023-08-06T11:39:45;8.15;;;6.97;;
32501;SDS011;18952;52.516;13.460;2023-08-06T11:42:13;8.23;;;6.80;;
32501;SDS011;18952;52.516;13.460;2023-08-06T11:44:40;8.75;;;7.60;;
32501;SDS011;18952;52.516;13.460;2023-08-06T11:47:11;8.05;;;7.35;;
32501;SDS011;18952;52.516;13.460;2023-08-06T11:49:47;8.10;;;7.15;;
32501;SDS011;18952;52.516;13.460;2023-08-06T11:52:16;8.15;;;7.30;;
32501;SDS011;18952;52.516;13.460;2023-08-06T11:55:07;8.18;;;7.38;;
32501;SDS011;18952;52.516;13.460;2023-08-06T11:57:34;8.98;;;8.05;;
32501;SDS011;18952;52.516;13.460;2023-08-06T12:00:02;8.55;;;7.72;;
32501;SDS011;18952;52.516;13.460;2023-08-06T12:02:33;9.45;;;8.55;;
32501;SDS011;18952;52.516;13.460;2023-08-06T12:05:04;11.43;;;8.20;;
32501;SDS011;18952;52.516;13.460;2023-08-06T12:07:36;9.30;;;8.05;;
32501;SDS011;18952;52.516;13.460;2023-08-06T12:10:04;9.82;;;8.38;;
32501;SDS011;18952;52.516;13.460;2023-08-06T12:12:31;12.73;;;8.80;;
32501;SDS011;18952;52.516;13.460;2023-08-06T12:14:58;14.45;;;9.43;;
32501;SDS011;18952;52.516;13.460;2023-08-06T12:17:25;11.77;;;10.10;;
32501;SDS011;18952;52.516;13.460;2023-08-06T12:19:52;11.85;;;9.32;;
32501;SDS011;18952;52.516;13.460;2023-08-06T12:22:19;11.32;;;9.50;;
32501;SDS011;18952;52.516;13.460;2023-08-06T12:24:49;10.70;;;9.65;;
32501;SDS011;18952;52.516;13.460;2023-08-06T12:27:16;12.75;;;10.10;;
32501;SDS011;18952;52.516;13.460;2023-08-06T12:29:44;11.07;;;9.98;;
32501;SDS011;18952;52.516;13.460;2023-08-06T12:32:11;11.98;;;10.75;;
32501;SDS011;18952;52.516;13.460;2023-08-06T12:34:41;11.30;;;10.13;;
32501;SDS011;18952;52.516;13.460;2023-08-06T12:37:14;14.05;;;9.95;;
32501;SDS011;18952;52.516;13.460;2023-08-06T12:39:41;12.50;;;9.85;;
32501;SDS011;18952;52.516;13.460;2023-08-06T12:42:08;9.80;;;8.68;;
32501;SDS011;18952;52.516;13.460;2023-08-06T12:44:36;8.77;;;7.93;;
32501;SDS011;18952;52.516;13.460;2023-08-06T12:47:03;9.80;;;7.50;;
32501;SDS011;18952;52.516;13.460;2023-08-06T12:49:30;9.02;;;8.13;;
32501;SDS011;18952;52.516;13.460;2023-08-06T12:51:57;11.90;;;8.55;;
32501;SDS011;18952;52.516;13.460;2023-08-06T12:54:23;10.05;;;9.02;;
32501;SDS011;18952;52.516;13.460;2023-08-06T12:56:50;12.30;;;9.30;;
32501;SDS011;18952;52.516;13.460;2023-08-06T12:59:17;12.07;;;9.73;;
32501;SDS011;18952;52.516;13.460;2023-08-06T13:01:44;10.15;;;9.15;;
32501;SDS011;18952;52.516;13.460;2023-08-06T13:04:12;11.55;;;9.63;;
32501;SDS011;18952;52.516;13.460;2023-08-06T13:09:14;10.82;;;9.77;;
32501;SDS011;18952;52.516;13.460;2023-08-06T13:11:42;10.95;;;9.55;;
32501;SDS011;18952;52.516;13.460;2023-08-06T13:14:12;11.90;;;9.35;;
32501;SDS011;18952;52.516;13.460;2023-08-06T13:16:41;10.82;;;9.73;;
32501;SDS011;18952;52.516;13.460;2023-08-06T13:19:08;10.98;;;9.82;;
32501;SDS011;18952;52.516;13.460;2023-08-06T13:24:15;9.85;;;8.98;;
32501;SDS011;18952;52.516;13.460;2023-08-06T13:26:42;10.50;;;9.40;;
32501;SDS011;18952;52.516;13.460;2023-08-06T13:29:08;12.60;;;10.13;;
32501;SDS011;18952;52.516;13.460;2023-08-06T13:31:36;12.18;;;10.85;;
32501;SDS011;18952;52.516;13.460;2023-08-06T13:34:03;10.57;;;8.55;;
32501;SDS011;18952;52.516;13.460;2023-08-06T13:36:30;10.02;;;8.60;;
32501;SDS011;18952;52.516;13.460;2023-08-06T13:38:57;10.30;;;8.15;;
32501;SDS011;18952;52.516;13.460;2023-08-06T13:41:24;9.02;;;7.88;;
32501;SDS011;18952;52.516;13.460;2023-08-06T13:43:51;7.60;;;6.85;;
32501;SDS011;18952;52.516;13.460;2023-08-06T13:46:18;9.43;;;7.05;;
32501;SDS011;18952;52.516;13.460;2023-08-06T13:48:46;9.70;;;7.40;;
32501;SDS011;18952;52.516;13.460;2023-08-06T13:51:14;9.25;;;8.32;;
32501;SDS011;18952;52.516;13.460;2023-08-06T13:53:41;10.20;;;7.93;;
32501;SDS011;18952;52.516;13.460;2023-08-06T13:56:10;7.93;;;6.50;;
32501;SDS011;18952;52.516;13.460;2023-08-06T13:58:38;7.85;;;6.82;;
32501;SDS011;18952;52.516;13.460;2023-08-06T14:01:05;11.30;;;7.15;;
32501;SDS011;18952;52.516;13.460;2023-08-06T14:03:32;8.43;;;5.82;;
32501;SDS011;18952;52.516;13.460;2023-08-06T14:05:59;7.53;;;6.18;;
32501;SDS011;18952;52.516;13.460;2023-08-06T14:08:26;7.47;;;6.75;;
32501;SDS011;18952;52.516;13.460;2023-08-06T14:10:53;7.32;;;6.40;;
32501;SDS011;18952;52.516;13.460;2023-08-06T14:13:23;12.90;;;7.43;;
32501;SDS011;18952;52.516;13.460;2023-08-06T14:15:50;9.13;;;5.82;;
32501;SDS011;18952;52.516;13.460;2023-08-06T14:18:17;7.75;;;5.70;;
32501;SDS011;18952;52.516;13.460;2023-08-06T14:20:44;6.93;;;5.82;;
32501;SDS011;18952;52.516;13.460;2023-08-06T14:23:11;5.97;;;4.82;;
32501;SDS011;18952;52.516;13.460;2023-08-06T14:25:38;11.45;;;5.72;;
32501;SDS011;18952;52.516;13.460;2023-08-06T14:28:05;8.55;;;5.93;;
32501;SDS011;18952;52.516;13.460;2023-08-06T14:30:33;5.68;;;5.15;;
32501;SDS011;18952;52.516;13.460;2023-08-06T14:33:00;8.70;;;7.72;;
32501;SDS011;18952;52.516;13.460;2023-08-06T14:35:42;9.05;;;5.30;;
32501;SDS011;18952;52.516;13.460;2023-08-06T14:38:08;8.88;;;5.40;;
32501;SDS011;18952;52.516;13.460;2023-08-06T14:40:35;6.95;;;5.75;;
32501;SDS011;18952;52.516;13.460;2023-08-06T14:43:02;7.68;;;6.20;;